Time;durP1;ratioP1;P1;durP2;ratioP2;P2;SDS_P1;SDS_P2;PMS_P1;PMS_P2;Temp;Humidity;BMP_temperature;BMP_pressure;BME280_temperature;BME280_humidity;BME280_pressure;Samples;Min_cycle;Max_cycle;Signal;HPM_P1;HPM_P2
2022/08/03 00:00:53;;;;;;;3.35;1.33;;;;;;;;;;5022937;28;20037;-65
2022/08/03 00:03:18;;;;;;;5.75;1.27;;;;;;;;;;5024387;28;20087;-65
2022/08/03 00:05:44;;;;;;;2.92;1.00;;;;;;;;;;5032338;28;20088;-65
2022/08/03 00:08:10;;;;;;;2.53;1.20;;;;;;;;;;5025701;28;20124;-65
2022/08/03 00:10:35;;;;;;;2.40;1.20;;;;;;;;;;5026844;28;20065;-65
2022/08/03 00:13:00;;;;;;;1.60;1.00;;;;;;;;;;5024791;28;20540;-65
2022/08/03 00:15:26;;;;;;;3.42;1.30;;;;;;;;;;5025540;28;20506;-65
2022/08/03 00:17:51;;;;;;;3.40;1.10;;;;;;;;;;5026123;28;20038;-65
2022/08/03 00:20:17;;;;;;;2.72;1.10;;;;;;;;;;5028137;28;20041;-65
2022/08/03 00:22:42;;;;;;;3.95;1.17;;;;;;;;;;5029699;28;20026;-65
2022/08/03 00:25:07;;;;;;;1.77;1.25;;;;;;;;;;5026773;28;20021;-65
2022/08/03 00:27:33;;;;;;;5.22;1.13;;;;;;;;;;5023316;28;20042;-65
2022/08/03 00:29:58;;;;;;;2.55;1.10;;;;;;;;;;5026339;28;20484;-65
2022/08/03 00:32:23;;;;;;;2.22;1.10;;;;;;;;;;5024723;28;20503;-65
2022/08/03 00:34:49;;;;;;;2.47;1.23;;;;;;;;;;5025686;28;20578;-65
2022/08/03 00:37:14;;;;;;;6.30;1.33;;;;;;;;;;5022092;28;20033;-65
2022/08/03 00:39:42;;;;;;;1.23;0.88;;;;;;;;;;5029650;28;20044;-65
2022/08/03 00:42:07;;;;;;;1.85;1.40;;;;;;;;;;5022127;28;20083;-65
2022/08/03 00:44:41;;;;;;;3.22;1.15;;;;;;;;;;5007690;28;20030;-65
2022/08/03 00:47:09;;;;;;;2.03;1.00;;;;;;;;;;5020827;28;20065;-65
2022/08/03 00:49:35;;;;;;;1.75;1.02;;;;;;;;;;5024764;28;20544;-65
2022/08/03 00:52:01;;;;;;;2.28;1.15;;;;;;;;;;5023876;28;20048;-65
2022/08/03 00:54:26;;;;;;;3.58;1.08;;;;;;;;;;5023689;28;20054;-65
2022/08/03 00:56:52;;;;;;;3.88;1.85;;;;;;;;;;5025083;28;20064;-65
2022/08/03 00:59:18;;;;;;;3.30;1.38;;;;;;;;;;5021087;28;20068;-65
2022/08/03 01:01:43;;;;;;;4.00;1.40;;;;;;;;;;5024251;28;20029;-65
2022/08/03 01:04:08;;;;;;;5.40;1.52;;;;;;;;;;5024936;28;20096;-65
2022/08/03 01:07:13;;;;;;;2.92;1.40;;;;;;;;;;5026876;28;20073;-65
2022/08/03 01:10:01;;;;;;;3.40;1.58;;;;;;;;;;5007631;28;20561;-65
2022/08/03 01:12:42;;;;;;;2.42;1.50;;;;;;;;;;5029176;28;20060;-65
2022/08/03 01:15:07;;;;;;;2.67;1.05;;;;;;;;;;5025684;28;20049;-65
2022/08/03 01:17:42;;;;;;;1.52;1.20;;;;;;;;;;5018579;28;20050;-65
2022/08/03 01:20:13;;;;;;;1.67;1.20;;;;;;;;;;5023731;28;20033;-65
2022/08/03 01:23:05;;;;;;;3.42;1.10;;;;;;;;;;5029978;28;20025;-65
2022/08/03 01:25:35;;;;;;;1.73;1.10;;;;;;;;;;5028743;28;20049;-65
2022/08/03 01:28:37;;;;;;;2.45;1.40;;;;;;;;;;5024310;28;20045;-65
2022/08/03 01:31:07;;;;;;;5.28;1.35;;;;;;;;;;5026908;28;20056;-65
2022/08/03 01:33:39;;;;;;;2.85;1.42;;;;;;;;;;5023837;28;20045;-65
2022/08/03 01:36:10;;;;;;;2.53;1.35;;;;;;;;;;5027720;28;20090;-65
2022/08/03 01:38:41;;;;;;;5.13;1.25;;;;;;;;;;5021152;28;20047;-65
2022/08/03 01:41:11;;;;;;;4.22;1.33;;;;;;;;;;5029178;28;20036;-65
2022/08/03 01:43:39;;;;;;;2.25;1.10;;;;;;;;;;5013125;28;20131;-65
2022/08/03 01:46:07;;;;;;;8.57;1.40;;;;;;;;;;5019090;28;20038;-65
2022/08/03 01:48:34;;;;;;;1.90;1.17;;;;;;;;;;5021020;28;20044;-65
2022/08/03 01:50:59;;;;;;;2.05;1.10;;;;;;;;;;5009763;28;20702;-65
2022/08/03 01:53:27;;;;;;;3.22;1.20;;;;;;;;;;5015249;28;20071;-65
2022/08/03 01:55:54;;;;;;;3.47;1.58;;;;;;;;;;5024601;28;20029;-65
2022/08/03 01:58:22;;;;;;;1.73;1.17;;;;;;;;;;5030668;28;20742;-65
2022/08/03 02:00:49;;;;;;;2.08;1.20;;;;;;;;;;5042624;28;20128;-65
2022/08/03 02:03:15;;;;;;;4.05;1.23;;;;;;;;;;5025175;28;20041;-65
2022/08/03 02:05:42;;;;;;;1.98;1.35;;;;;;;;;;5027431;28;20108;-65
2022/08/03 02:08:11;;;;;;;3.80;1.40;;;;;;;;;;5029115;28;20057;-65
2022/08/03 02:10:40;;;;;;;4.57;1.60;;;;;;;;;;5029195;28;20029;-65
2022/08/03 02:13:07;;;;;;;4.88;1.45;;;;;;;;;;5029376;28;20578;-65
2022/08/03 02:15:32;;;;;;;4.18;1.42;;;;;;;;;;5030232;28;20030;-65
2022/08/03 02:17:59;;;;;;;3.03;1.30;;;;;;;;;;5030136;28;20041;-65
2022/08/03 02:20:27;;;;;;;5.07;1.50;;;;;;;;;;5025073;28;20044;-65
2022/08/03 02:22:53;;;;;;;5.53;1.25;;;;;;;;;;5010429;28;20041;-65
2022/08/03 02:25:18;;;;;;;1.85;1.23;;;;;;;;;;5028894;28;20087;-64
2022/08/03 02:28:10;;;;;;;3.40;1.23;;;;;;;;;;5029860;28;20038;-65
2022/08/03 02:30:39;;;;;;;5.07;1.52;;;;;;;;;;5038812;28;20468;-65
2022/08/03 02:33:11;;;;;;;5.22;1.40;;;;;;;;;;5028055;28;20469;-65
2022/08/03 02:35:38;;;;;;;1.95;1.20;;;;;;;;;;5029489;28;20156;-65
2022/08/03 02:38:07;;;;;;;2.65;1.30;;;;;;;;;;5026452;28;20038;-65
2022/08/03 02:40:32;;;;;;;3.63;1.20;;;;;;;;;;5028693;28;20078;-65
2022/08/03 02:43:02;;;;;;;1.73;1.23;;;;;;;;;;5028587;28;20037;-65
2022/08/03 02:45:28;;;;;;;3.72;1.48;;;;;;;;;;5026320;28;20033;-65
2022/08/03 02:47:57;;;;;;;3.63;1.42;;;;;;;;;;5025786;28;20136;-65
2022/08/03 02:50:23;;;;;;;4.13;1.42;;;;;;;;;;5028770;28;20207;-65
2022/08/03 02:52:50;;;;;;;7.32;1.52;;;;;;;;;;5031392;28;20148;-65
2022/08/03 02:55:18;;;;;;;3.03;1.30;;;;;;;;;;5028152;28;20060;-65
2022/08/03 02:57:46;;;;;;;3.80;1.95;;;;;;;;;;5033423;28;20040;-65
2022/08/03 03:00:12;;;;;;;3.75;1.40;;;;;;;;;;5028070;28;20041;-65
2022/08/03 03:02:39;;;;;;;2.15;1.30;;;;;;;;;;5021873;28;20069;-65
2022/08/03 03:05:06;;;;;;;3.03;1.58;;;;;;;;;;5024574;28;20044;-65
2022/08/03 03:07:33;;;;;;;3.33;1.20;;;;;;;;;;5029218;28;20422;-65
2022/08/03 03:10:00;;;;;;;3.53;1.60;;;;;;;;;;5025412;28;20042;-65
2022/08/03 03:12:26;;;;;;;4.00;1.65;;;;;;;;;;5028312;28;20135;-65
2022/08/03 03:14:52;;;;;;;3.55;1.55;;;;;;;;;;5026843;28;20045;-65
2022/08/03 03:17:19;;;;;;;5.38;1.73;;;;;;;;;;5027938;28;20119;-65
2022/08/03 03:19:45;;;;;;;3.70;1.60;;;;;;;;;;5027779;28;20021;-65
2022/08/03 03:22:11;;;;;;;2.33;1.63;;;;;;;;;;5028806;28;20040;-65
2022/08/03 03:24:39;;;;;;;5.80;1.48;;;;;;;;;;5026899;28;20625;-65
2022/08/03 03:27:04;;;;;;;3.03;1.38;;;;;;;;;;5024026;28;20503;-65
2022/08/03 03:29:31;;;;;;;4.32;1.40;;;;;;;;;;5028265;28;20046;-65
2022/08/03 03:31:57;;;;;;;5.60;1.88;;;;;;;;;;5027864;28;20059;-65
2022/08/03 03:34:23;;;;;;;4.72;1.55;;;;;;;;;;5027390;28;20498;-65
2022/08/03 03:36:49;;;;;;;4.43;1.58;;;;;;;;;;5025241;28;20120;-65
2022/08/03 03:39:14;;;;;;;5.20;1.60;;;;;;;;;;5025970;28;20112;-65
2022/08/03 03:41:40;;;;;;;5.97;2.00;;;;;;;;;;5026512;28;20151;-65
2022/08/03 03:44:05;;;;;;;3.80;1.70;;;;;;;;;;5026959;28;20392;-65
2022/08/03 03:46:31;;;;;;;2.55;1.60;;;;;;;;;;5027681;28;20061;-65
2022/08/03 03:48:56;;;;;;;2.58;1.50;;;;;;;;;;5029429;28;20187;-65
2022/08/03 03:51:22;;;;;;;3.80;1.70;;;;;;;;;;5032023;28;20043;-65
2022/08/03 03:53:58;;;;;;;4.40;2.00;;;;;;;;;;5028697;28;20627;-65
2022/08/03 03:56:23;;;;;;;3.85;2.03;;;;;;;;;;5025996;28;20044;-65
2022/08/03 03:58:50;;;;;;;6.38;1.98;;;;;;;;;;5029135;28;20077;-65
2022/08/03 04:01:16;;;;;;;5.72;2.25;;;;;;;;;;5016488;28;20122;-65
2022/08/03 04:03:41;;;;;;;6.60;1.98;;;;;;;;;;5017194;28;20041;-65
2022/08/03 04:10:57;;;;;;;4.93;1.90;;;;;;;;;;5028376;28;20063;-65
2022/08/03 04:11:51;;;;;;;6.57;2.30;;;;;;;;;;5026288;28;20515;-65
2022/08/03 04:14:45;;;;;;;7.95;2.20;;;;;;;;;;5025170;28;20033;-65
2022/08/03 04:17:12;;;;;;;4.70;2.22;;;;;;;;;;5019449;28;20095;-65
2022/08/03 04:19:42;;;;;;;6.05;2.10;;;;;;;;;;5025916;28;20026;-65
2022/08/03 04:22:16;;;;;;;4.90;2.58;;;;;;;;;;5024071;28;20533;-65
2022/08/03 04:25:03;;;;;;;4.30;2.35;;;;;;;;;;5024629;28;20064;-65
2022/08/03 04:27:33;;;;;;;5.38;2.65;;;;;;;;;;5024618;28;20037;-65
2022/08/03 04:30:01;;;;;;;4.63;2.28;;;;;;;;;;5025791;28;20102;-65
2022/08/03 04:32:28;;;;;;;5.53;2.33;;;;;;;;;;5019352;28;20169;-65
2022/08/03 04:34:53;;;;;;;4.10;2.40;;;;;;;;;;5028129;28;20033;-65
2022/08/03 04:37:40;;;;;;;4.40;2.53;;;;;;;;;;5028485;28;20026;-65
2022/08/03 04:40:09;;;;;;;5.63;2.92;;;;;;;;;;5021641;28;20049;-65
2022/08/03 04:42:37;;;;;;;7.05;3.13;;;;;;;;;;5029187;28;20030;-65
2022/08/03 04:45:04;;;;;;;6.20;3.00;;;;;;;;;;5029707;28;20044;-65
2022/08/03 04:47:33;;;;;;;7.88;3.17;;;;;;;;;;5027164;28;20079;-65
2022/08/03 04:50:03;;;;;;;6.22;2.83;;;;;;;;;;5027998;28;20739;-65
2022/08/03 04:52:29;;;;;;;11.40;3.55;;;;;;;;;;5027640;28;20022;-65
2022/08/03 04:54:55;;;;;;;4.47;2.72;;;;;;;;;;5024779;28;20479;-65
2022/08/03 04:57:20;;;;;;;8.23;3.45;;;;;;;;;;5030872;28;20058;-65
2022/08/03 04:59:48;;;;;;;7.63;3.50;;;;;;;;;;5029078;28;20056;-65
2022/08/03 05:02:13;;;;;;;7.47;3.97;;;;;;;;;;5027436;28;20034;-65
2022/08/03 05:04:45;;;;;;;9.02;3.80;;;;;;;;;;5016921;28;20038;-65
2022/08/03 05:07:10;;;;;;;7.18;3.92;;;;;;;;;;5015347;28;20025;-65
2022/08/03 05:09:37;;;;;;;7.85;3.67;;;;;;;;;;5025847;28;20144;-65
2022/08/03 05:12:03;;;;;;;5.72;3.25;;;;;;;;;;5030425;28;20091;-65
2022/08/03 05:14:28;;;;;;;7.03;3.58;;;;;;;;;;5029230;28;20037;-65
2022/08/03 05:16:54;;;;;;;7.90;2.65;;;;;;;;;;5029763;28;20079;-65
2022/08/03 05:19:19;;;;;;;10.35;3.70;;;;;;;;;;5027771;28;20600;-65
2022/08/03 05:21:45;;;;;;;7.47;3.53;;;;;;;;;;5028285;28;20121;-65
2022/08/03 05:24:10;;;;;;;10.27;3.70;;;;;;;;;;5027504;28;20411;-65
2022/08/03 05:26:36;;;;;;;8.32;3.63;;;;;;;;;;5025561;28;20112;-65
2022/08/03 05:29:01;;;;;;;8.82;3.33;;;;;;;;;;5029538;28;20034;-65
2022/08/03 05:31:26;;;;;;;6.75;3.30;;;;;;;;;;5027962;28;20098;-65
2022/08/03 05:33:53;;;;;;;6.38;2.95;;;;;;;;;;5026250;28;20060;-65
2022/08/03 05:36:18;;;;;;;6.35;2.78;;;;;;;;;;5023389;28;20049;-65
2022/08/03 05:38:43;;;;;;;6.53;2.75;;;;;;;;;;5029214;28;20033;-65
2022/08/03 05:41:09;;;;;;;10.43;3.47;;;;;;;;;;5023512;28;20029;-65
2022/08/03 05:43:34;;;;;;;4.35;2.80;;;;;;;;;;5023599;28;20052;-65
2022/08/03 05:45:59;;;;;;;4.68;2.65;;;;;;;;;;5020447;28;20117;-65
2022/08/03 05:48:25;;;;;;;5.90;3.08;;;;;;;;;;5025548;28;20041;-65
2022/08/03 05:50:50;;;;;;;6.30;3.00;;;;;;;;;;5024667;28;20033;-65
2022/08/03 05:53:16;;;;;;;8.52;2.72;;;;;;;;;;5026633;28;20057;-65
2022/08/03 05:55:41;;;;;;;5.25;2.63;;;;;;;;;;5028904;28;20040;-65
2022/08/03 05:58:06;;;;;;;5.13;2.80;;;;;;;;;;5027528;28;20497;-65
2022/08/03 06:00:32;;;;;;;5.63;3.05;;;;;;;;;;5027323;28;20521;-65
2022/08/03 06:02:57;;;;;;;6.00;3.35;;;;;;;;;;5024047;28;20791;-65
2022/08/03 06:05:25;;;;;;;6.57;2.58;;;;;;;;;;5026679;28;20084;-65
2022/08/03 06:07:51;;;;;;;6.43;2.65;;;;;;;;;;5025191;28;20021;-65
2022/08/03 06:10:16;;;;;;;7.88;3.17;;;;;;;;;;5026652;28;20036;-65
2022/08/03 06:12:43;;;;;;;7.78;3.63;;;;;;;;;;5010550;28;20034;-65
2022/08/03 06:15:09;;;;;;;8.35;3.08;;;;;;;;;;5010471;28;20033;-65
2022/08/03 06:17:43;;;;;;;6.90;3.50;;;;;;;;;;5010436;28;20080;-65
2022/08/03 06:20:09;;;;;;;10.48;3.75;;;;;;;;;;5023934;28;20029;-65
2022/08/03 06:22:35;;;;;;;7.47;2.53;;;;;;;;;;5028960;28;20108;-66
2022/08/03 06:25:00;;;;;;;4.30;2.45;;;;;;;;;;5029241;28;20116;-65
2022/08/03 06:27:26;;;;;;;4.57;2.83;;;;;;;;;;5024919;28;20495;-65
2022/08/03 06:29:51;;;;;;;5.88;2.03;;;;;;;;;;5029451;28;20060;-65
2022/08/03 06:32:17;;;;;;;7.10;2.10;;;;;;;;;;5029271;28;20036;-65
2022/08/03 06:34:42;;;;;;;3.85;1.77;;;;;;;;;;5029348;28;20021;-65
2022/08/03 06:37:07;;;;;;;4.07;1.60;;;;;;;;;;5029796;28;20056;-65
2022/08/03 06:39:33;;;;;;;8.70;1.75;;;;;;;;;;5029561;28;20036;-65
2022/08/03 06:41:58;;;;;;;4.80;1.60;;;;;;;;;;5029447;28;20033;-65
2022/08/03 06:44:23;;;;;;;4.28;1.58;;;;;;;;;;5029797;28;20033;-65
2022/08/03 06:46:50;;;;;;;3.90;1.60;;;;;;;;;;5028122;28;20021;-65
2022/08/03 06:49:15;;;;;;;4.70;1.50;;;;;;;;;;5036246;28;20522;-65
2022/08/03 06:51:40;;;;;;;3.95;1.30;;;;;;;;;;5035886;28;20033;-65
2022/08/03 06:54:06;;;;;;;4.03;1.40;;;;;;;;;;5029124;28;20545;-65
2022/08/03 06:56:32;;;;;;;2.35;1.23;;;;;;;;;;5030304;28;20075;-65
2022/08/03 06:58:57;;;;;;;5.50;1.73;;;;;;;;;;5029309;28;20049;-65
2022/08/03 07:01:22;;;;;;;11.60;1.67;;;;;;;;;;5027912;28;20025;-65
2022/08/03 07:03:48;;;;;;;3.17;1.30;;;;;;;;;;5015761;28;20061;-65
2022/08/03 07:06:13;;;;;;;3.95;1.25;;;;;;;;;;5009054;28;20053;-65
2022/08/03 07:08:38;;;;;;;8.23;1.63;;;;;;;;;;5012382;28;20029;-65
2022/08/03 07:11:04;;;;;;;6.03;1.42;;;;;;;;;;5028923;28;20034;-65
2022/08/03 07:13:29;;;;;;;4.05;1.20;;;;;;;;;;5033591;28;20017;-65
2022/08/03 07:15:54;;;;;;;1.55;1.00;;;;;;;;;;5037753;28;20442;-65
2022/08/03 07:18:20;;;;;;;3.13;1.23;;;;;;;;;;5027719;28;20040;-65
2022/08/03 07:20:45;;;;;;;4.00;1.45;;;;;;;;;;5016194;28;20037;-65
2022/08/03 07:23:10;;;;;;;6.45;1.30;;;;;;;;;;5027709;28;20021;-65
2022/08/03 07:25:36;;;;;;;5.75;1.38;;;;;;;;;;5029626;28;20083;-65
2022/08/03 07:28:01;;;;;;;1.95;1.02;;;;;;;;;;5048212;28;20079;-65
2022/08/03 07:30:26;;;;;;;3.70;1.00;;;;;;;;;;5028004;28;20099;-65
2022/08/03 07:32:51;;;;;;;3.28;1.13;;;;;;;;;;5026800;28;20068;-65
2022/08/03 07:35:17;;;;;;;6.45;1.27;;;;;;;;;;5027815;28;20033;-65
2022/08/03 07:37:42;;;;;;;3.65;1.08;;;;;;;;;;5028342;28;20055;-65
2022/08/03 07:40:08;;;;;;;3.53;1.15;;;;;;;;;;5020943;28;20454;-65
2022/08/03 07:42:33;;;;;;;3.53;0.93;;;;;;;;;;5024058;28;20665;-65
2022/08/03 07:44:58;;;;;;;4.20;0.98;;;;;;;;;;5018405;28;20103;-65
2022/08/03 07:47:28;;;;;;;3.45;1.30;;;;;;;;;;5024324;28;20036;-65
2022/08/03 07:49:54;;;;;;;3.10;1.10;;;;;;;;;;5022499;28;20057;-65
2022/08/03 07:55:05;;;;;;;4.07;1.40;;;;;;;;;;5026494;28;20960;-65
2022/08/03 07:57:30;;;;;;;3.60;1.48;;;;;;;;;;5025934;28;20502;-65
2022/08/03 07:59:56;;;;;;;1.67;1.20;;;;;;;;;;5024062;28;20395;-65
2022/08/03 08:02:21;;;;;;;7.75;1.25;;;;;;;;;;5026755;28;20037;-65
2022/08/03 08:04:46;;;;;;;1.73;0.80;;;;;;;;;;5023652;28;20021;-65
2022/08/03 08:07:12;;;;;;;3.83;1.30;;;;;;;;;;5023996;28;20033;-65
2022/08/03 08:09:37;;;;;;;4.85;1.00;;;;;;;;;;5021243;28;20651;-65
2022/08/03 08:12:03;;;;;;;7.40;1.73;;;;;;;;;;5024991;28;20426;-65
2022/08/03 08:14:28;;;;;;;2.50;1.10;;;;;;;;;;5015663;28;20030;-65
2022/08/03 08:16:54;;;;;;;6.88;1.40;;;;;;;;;;5020531;28;20033;-65
2022/08/03 08:19:19;;;;;;;5.43;1.25;;;;;;;;;;5023564;28;20021;-65
2022/08/03 08:21:44;;;;;;;2.53;0.88;;;;;;;;;;5026183;28;20034;-65
2022/08/03 08:24:10;;;;;;;2.97;1.10;;;;;;;;;;5026402;28;20033;-65
2022/08/03 08:26:35;;;;;;;6.97;1.40;;;;;;;;;;5025240;28;20033;-65
2022/08/03 08:29:02;;;;;;;3.08;1.88;;;;;;;;;;5023753;28;20107;-65
2022/08/03 08:31:27;;;;;;;5.72;1.25;;;;;;;;;;5022283;28;20037;-65
2022/08/03 08:33:53;;;;;;;5.32;1.05;;;;;;;;;;5025218;28;20044;-65
2022/08/03 08:36:18;;;;;;;3.55;1.05;;;;;;;;;;5031003;28;20032;-65
2022/08/03 08:38:43;;;;;;;2.13;1.02;;;;;;;;;;5023558;28;20045;-65
2022/08/03 08:41:13;;;;;;;5.05;1.27;;;;;;;;;;5025394;28;20043;-65
2022/08/03 08:43:39;;;;;;;4.35;1.30;;;;;;;;;;5022572;28;20047;-66
2022/08/03 08:46:08;;;;;;;2.78;0.93;;;;;;;;;;5021156;28;20072;-65
2022/08/03 08:48:37;;;;;;;3.42;1.20;;;;;;;;;;5025116;28;20116;-65
2022/08/03 08:51:04;;;;;;;4.13;1.20;;;;;;;;;;5027601;28;20595;-65
2022/08/03 08:53:31;;;;;;;4.40;1.20;;;;;;;;;;5025649;28;20049;-65
2022/08/03 08:55:59;;;;;;;2.88;1.20;;;;;;;;;;5025065;28;20055;-66
2022/08/03 08:58:27;;;;;;;4.28;1.00;;;;;;;;;;5023533;28;20053;-65
2022/08/03 09:00:52;;;;;;;3.58;1.17;;;;;;;;;;5022113;28;20068;-65
2022/08/03 09:03:18;;;;;;;5.95;1.10;;;;;;;;;;5022107;28;20065;-66
2022/08/03 09:05:43;;;;;;;4.78;1.10;;;;;;;;;;5027584;28;20026;-65
2022/08/03 09:08:09;;;;;;;3.65;0.93;;;;;;;;;;5028134;28;20038;-65
2022/08/03 09:10:34;;;;;;;2.97;1.13;;;;;;;;;;5023771;28;20037;-65
2022/08/03 09:12:59;;;;;;;3.17;0.90;;;;;;;;;;5022649;28;20080;-66
2022/08/03 09:15:30;;;;;;;6.05;1.23;;;;;;;;;;5023743;28;20034;-65
2022/08/03 09:17:58;;;;;;;7.00;1.20;;;;;;;;;;5020361;28;20124;-66
2022/08/03 09:20:25;;;;;;;3.58;1.27;;;;;;;;;;5030987;28;20036;-65
2022/08/03 09:22:57;;;;;;;4.55;1.30;;;;;;;;;;5044086;28;20033;-65
2022/08/03 09:25:33;;;;;;;3.00;1.10;;;;;;;;;;5019988;28;20513;-66
2022/08/03 09:28:17;;;;;;;5.50;1.20;;;;;;;;;;5023327;28;20030;-66
2022/08/03 09:30:56;;;;;;;5.53;1.10;;;;;;;;;;5024131;28;20037;-65
2022/08/03 09:33:22;;;;;;;7.03;1.00;;;;;;;;;;5025750;28;20040;-65
2022/08/03 09:35:50;;;;;;;1.38;0.93;;;;;;;;;;5027910;28;20033;-65
2022/08/03 09:38:22;;;;;;;3.00;0.90;;;;;;;;;;5022371;28;20601;-65
2022/08/03 09:40:48;;;;;;;1.38;0.80;;;;;;;;;;5021628;28;20014;-65
2022/08/03 09:43:13;;;;;;;3.22;0.80;;;;;;;;;;5031001;28;20527;-66
2022/08/03 09:45:40;;;;;;;1.85;1.05;;;;;;;;;;5037470;28;20443;-66
2022/08/03 09:48:25;;;;;;;0.90;0.60;;;;;;;;;;5030234;28;20041;-66
2022/08/03 09:50:56;;;;;;;1.17;0.70;;;;;;;;;;5028223;28;20687;-66
2022/08/03 09:53:22;;;;;;;3.97;0.90;;;;;;;;;;5018950;28;20041;-66
2022/08/03 09:55:51;;;;;;;2.53;0.90;;;;;;;;;;5027215;28;20029;-66
2022/08/03 09:58:17;;;;;;;1.75;0.90;;;;;;;;;;5030190;28;20104;-66
2022/08/03 10:00:52;;;;;;;2.33;0.85;;;;;;;;;;5026294;28;20265;-66
2022/08/03 10:03:18;;;;;;;1.00;0.63;;;;;;;;;;5025936;28;20037;-66
2022/08/03 10:05:44;;;;;;;3.55;0.80;;;;;;;;;;5029050;28;20029;-66
2022/08/03 10:08:19;;;;;;;6.65;0.80;;;;;;;;;;5029548;28;20383;-66
2022/08/03 10:10:48;;;;;;;2.78;1.10;;;;;;;;;;5019793;28;20030;-66
2022/08/03 10:13:17;;;;;;;3.20;1.00;;;;;;;;;;5029956;28;20108;-66
2022/08/03 10:15:43;;;;;;;2.28;0.73;;;;;;;;;;5021494;28;20049;-66
2022/08/03 10:18:09;;;;;;;2.53;1.00;;;;;;;;;;5010347;28;20034;-66
2022/08/03 10:20:42;;;;;;;4.90;0.93;;;;;;;;;;5021887;28;20029;-66
2022/08/03 10:23:09;;;;;;;1.25;0.80;;;;;;;;;;5037350;28;20383;-66
2022/08/03 10:25:39;;;;;;;1.55;1.15;;;;;;;;;;5029647;28;20051;-66
2022/08/03 10:28:05;;;;;;;5.18;1.13;;;;;;;;;;5033549;28;20026;-66
2022/08/03 10:30:32;;;;;;;1.35;0.80;;;;;;;;;;5026327;28;20034;-66
2022/08/03 10:33:08;;;;;;;4.20;1.00;;;;;;;;;;5028738;28;20038;-66
2022/08/03 10:35:36;;;;;;;3.50;1.00;;;;;;;;;;5025805;28;20063;-65
2022/08/03 10:38:11;;;;;;;3.42;1.10;;;;;;;;;;5021173;28;20223;-66
2022/08/03 10:40:37;;;;;;;3.05;1.63;;;;;;;;;;5020807;28;20044;-66
2022/08/03 10:43:08;;;;;;;3.33;0.98;;;;;;;;;;5020159;28;20061;-66
2022/08/03 10:45:39;;;;;;;4.82;1.05;;;;;;;;;;5020465;28;20493;-66
2022/08/03 10:48:04;;;;;;;5.95;1.25;;;;;;;;;;5027857;28;20045;-65
2022/08/03 10:50:30;;;;;;;2.38;1.08;;;;;;;;;;5029380;28;20032;-65
2022/08/03 10:52:57;;;;;;;5.32;1.20;;;;;;;;;;5026183;28;20026;-65
2022/08/03 10:58:50;;;;;;;2.65;0.90;;;;;;;;;;5029274;28;20610;-66
2022/08/03 11:01:18;;;;;;;1.05;0.95;;;;;;;;;;5018999;28;20077;-65
2022/08/03 11:03:52;;;;;;;6.95;1.10;;;;;;;;;;5026876;28;20046;-65
2022/08/03 11:06:23;;;;;;;2.78;1.67;;;;;;;;;;5021062;28;20037;-65
2022/08/03 11:09:09;;;;;;;4.85;1.00;;;;;;;;;;5027877;28;20545;-65
2022/08/03 11:11:36;;;;;;;2.10;1.02;;;;;;;;;;5025961;28;20040;-65
2022/08/03 11:14:18;;;;;;;7.25;1.10;;;;;;;;;;5028511;28;20120;-65
2022/08/03 11:16:51;;;;;;;1.08;0.77;;;;;;;;;;5025709;28;20112;-65
2022/08/03 11:19:21;;;;;;;1.85;1.00;;;;;;;;;;5025241;28;20036;-65
2022/08/03 11:21:50;;;;;;;2.58;1.15;;;;;;;;;;5023637;28;20507;-65
2022/08/03 11:24:41;;;;;;;5.35;1.20;;;;;;;;;;5028892;28;20606;-65
2022/08/03 11:27:21;;;;;;;2.88;1.00;;;;;;;;;;5033541;28;20045;-65
2022/08/03 11:30:07;;;;;;;2.65;1.00;;;;;;;;;;5028676;28;20506;-65
2022/08/03 11:32:46;;;;;;;2.67;1.10;;;;;;;;;;5028417;28;20033;-65
2022/08/03 11:35:12;;;;;;;1.35;1.10;;;;;;;;;;5028179;28;20116;-65
2022/08/03 11:37:53;;;;;;;1.08;0.80;;;;;;;;;;5008961;28;20034;-65
2022/08/03 11:40:38;;;;;;;1.20;0.80;;;;;;;;;;5013697;28;20511;-66
2022/08/03 11:43:07;;;;;;;1.73;0.90;;;;;;;;;;5024358;28;20045;-65
2022/08/03 11:45:33;;;;;;;1.48;0.80;;;;;;;;;;5028736;28;20083;-65
2022/08/03 11:48:15;;;;;;;3.75;0.90;;;;;;;;;;5028057;28;20037;-65
2022/08/03 11:50:44;;;;;;;3.03;0.80;;;;;;;;;;5027554;28;20038;-66
2022/08/03 11:53:13;;;;;;;1.85;0.80;;;;;;;;;;5019872;28;20407;-65
2022/08/03 11:55:40;;;;;;;1.48;0.80;;;;;;;;;;5041094;28;20048;-66
2022/08/03 11:58:06;;;;;;;1.02;0.90;;;;;;;;;;5036491;28;20050;-65
2022/08/03 12:00:32;;;;;;;2.25;0.77;;;;;;;;;;5022928;28;20051;-66
2022/08/03 12:03:13;;;;;;;2.05;0.82;;;;;;;;;;5017930;28;20145;-65
2022/08/03 12:05:38;;;;;;;2.05;0.90;;;;;;;;;;5017556;28;20044;-66
2022/08/03 12:08:04;;;;;;;1.10;0.90;;;;;;;;;;5028385;28;20037;-65
2022/08/03 12:10:30;;;;;;;1.10;0.80;;;;;;;;;;5013736;28;20029;-65
2022/08/03 12:12:57;;;;;;;1.48;0.88;;;;;;;;;;5023420;28;20037;-65
2022/08/03 12:15:30;;;;;;;1.20;0.82;;;;;;;;;;5027761;28;20037;-65
2022/08/03 12:17:56;;;;;;;3.67;1.15;;;;;;;;;;5027746;28;20088;-66
2022/08/03 12:20:24;;;;;;;1.70;0.90;;;;;;;;;;5027601;28;20049;-65
2022/08/03 12:22:50;;;;;;;1.65;0.70;;;;;;;;;;5027448;28;20463;-65
2022/08/03 12:25:23;;;;;;;1.80;0.70;;;;;;;;;;5028224;28;20243;-65
2022/08/03 12:27:51;;;;;;;2.90;1.00;;;;;;;;;;5024951;28;20576;-65
2022/08/03 12:30:17;;;;;;;0.90;0.90;;;;;;;;;;5027985;28;20041;-65
2022/08/03 12:32:43;;;;;;;2.30;1.48;;;;;;;;;;5027618;28;20041;-65
2022/08/03 12:35:09;;;;;;;1.50;0.85;;;;;;;;;;5026366;28;20053;-65
2022/08/03 12:37:35;;;;;;;1.42;0.90;;;;;;;;;;5026694;28;20075;-65
2022/08/03 12:40:03;;;;;;;2.60;1.05;;;;;;;;;;5027473;28;20037;-66
2022/08/03 12:42:38;;;;;;;2.00;1.02;;;;;;;;;;5027244;28;20065;-65
2022/08/03 12:45:25;;;;;;;4.22;1.20;;;;;;;;;;5010394;28;20037;-65
2022/08/03 12:47:55;;;;;;;3.25;1.10;;;;;;;;;;5021225;28;20061;-65
2022/08/03 12:50:39;;;;;;;1.90;0.90;;;;;;;;;;5021146;28;20049;-65
2022/08/03 12:53:07;;;;;;;1.65;0.98;;;;;;;;;;5019525;28;20550;-65
2022/08/03 12:55:34;;;;;;;2.33;1.10;;;;;;;;;;5021807;28;20137;-65
2022/08/03 12:58:00;;;;;;;1.20;0.90;;;;;;;;;;5023445;28;20049;-66
2022/08/03 13:00:26;;;;;;;2.63;1.00;;;;;;;;;;5024354;28;20145;-65
2022/08/03 13:03:04;;;;;;;0.93;0.82;;;;;;;;;;5031095;28;20061;-65
2022/08/03 13:05:30;;;;;;;2.45;1.00;;;;;;;;;;5031431;28;20029;-65
2022/08/03 13:07:56;;;;;;;2.20;1.13;;;;;;;;;;5030745;28;20041;-65
2022/08/03 13:10:29;;;;;;;8.27;1.30;;;;;;;;;;5031903;28;20479;-66
2022/08/03 13:12:57;;;;;;;1.10;1.00;;;;;;;;;;5031736;28;20136;-66
2022/08/03 13:15:25;;;;;;;3.28;1.10;;;;;;;;;;5031247;28;20040;-65
2022/08/03 13:17:51;;;;;;;2.80;1.88;;;;;;;;;;5031739;28;20037;-66
2022/08/03 13:20:16;;;;;;;1.17;0.90;;;;;;;;;;5027849;28;20533;-66
2022/08/03 13:22:45;;;;;;;2.78;1.30;;;;;;;;;;5045073;28;20388;-66
2022/08/03 13:25:11;;;;;;;1.33;1.10;;;;;;;;;;5031340;28;20029;-66
2022/08/03 13:27:36;;;;;;;3.92;1.02;;;;;;;;;;5031493;28;20033;-66
2022/08/03 13:30:02;;;;;;;4.05;1.30;;;;;;;;;;5027975;28;20128;-66
2022/08/03 13:32:28;;;;;;;4.70;1.40;;;;;;;;;;5031068;28;20059;-66
2022/08/03 13:34:53;;;;;;;2.78;1.10;;;;;;;;;;5023912;28;20542;-65
2022/08/03 13:37:19;;;;;;;3.75;1.10;;;;;;;;;;5011707;28;20464;-66
2022/08/03 13:39:44;;;;;;;1.83;1.10;;;;;;;;;;5011514;28;20477;-66
2022/08/03 13:42:09;;;;;;;1.58;1.30;;;;;;;;;;5020933;28;20491;-65
2022/08/03 13:44:37;;;;;;;2.45;1.05;;;;;;;;;;5027350;28;20048;-66
2022/08/03 13:47:03;;;;;;;3.38;1.10;;;;;;;;;;5027729;28;20171;-66
2022/08/03 13:49:29;;;;;;;1.88;1.08;;;;;;;;;;5028272;28;20021;-66
2022/08/03 13:51:57;;;;;;;1.83;1.00;;;;;;;;;;5023271;28;20045;-66
2022/08/03 13:54:23;;;;;;;3.10;1.13;;;;;;;;;;5015815;28;20048;-66
2022/08/03 13:56:52;;;;;;;4.90;1.10;;;;;;;;;;5030681;28;20068;-66
2022/08/03 13:59:19;;;;;;;2.45;1.20;;;;;;;;;;5039841;28;20683;-65
2022/08/03 14:01:45;;;;;;;1.60;1.25;;;;;;;;;;5028551;28;20079;-65
2022/08/03 14:04:10;;;;;;;5.10;1.23;;;;;;;;;;5031054;28;20029;-65
2022/08/03 14:06:36;;;;;;;6.15;1.20;;;;;;;;;;5026427;28;20041;-66
2022/08/03 14:09:01;;;;;;;1.40;1.00;;;;;;;;;;5028001;28;20041;-66
2022/08/03 14:11:27;;;;;;;1.95;1.27;;;;;;;;;;5025334;28;20048;-66
2022/08/03 14:13:52;;;;;;;1.52;0.93;;;;;;;;;;5027016;28;20539;-66
2022/08/03 14:16:17;;;;;;;3.20;1.05;;;;;;;;;;5029375;28;20040;-65
2022/08/03 14:18:43;;;;;;;1.52;1.08;;;;;;;;;;5024364;28;20045;-66
2022/08/03 14:21:08;;;;;;;2.40;1.10;;;;;;;;;;5025356;28;20037;-66
2022/08/03 14:23:34;;;;;;;2.13;1.23;;;;;;;;;;5026892;28;20034;-66
2022/08/03 14:26:00;;;;;;;8.32;1.40;;;;;;;;;;5028583;28;20044;-66
2022/08/03 14:28:25;;;;;;;2.15;1.23;;;;;;;;;;5023823;28;20021;-66
2022/08/03 14:30:51;;;;;;;2.25;1.30;;;;;;;;;;5024565;28;20033;-66
2022/08/03 14:33:17;;;;;;;2.72;1.10;;;;;;;;;;5026020;28;20041;-66
2022/08/03 14:35:42;;;;;;;5.60;1.40;;;;;;;;;;5025192;28;20033;-65
2022/08/03 14:38:07;;;;;;;3.97;1.58;;;;;;;;;;5021567;28;20040;-66
2022/08/03 14:40:33;;;;;;;3.63;1.45;;;;;;;;;;5015681;28;20038;-65
2022/08/03 14:42:58;;;;;;;4.00;1.45;;;;;;;;;;5028188;28;20719;-66
2022/08/03 14:45:23;;;;;;;2.88;1.25;;;;;;;;;;5029745;28;20068;-66
2022/08/03 14:47:50;;;;;;;5.05;1.58;;;;;;;;;;5020811;28;20511;-65
2022/08/03 14:50:15;;;;;;;3.25;1.30;;;;;;;;;;5018681;28;20176;-65
2022/08/03 14:52:41;;;;;;;6.88;1.30;;;;;;;;;;5025699;28;20134;-66
2022/08/03 14:55:06;;;;;;;4.25;1.67;;;;;;;;;;5026854;28;20068;-66
2022/08/03 14:57:32;;;;;;;4.72;1.30;;;;;;;;;;5020837;28;20049;-65